Time;durP1;ratioP1;P1;durP2;ratioP2;P2;SDS_P1;SDS_P2;PMS_P1;PMS_P2;Temp;Humidity;BMP_temperature;BMP_pressure;BME280_temperature;BME280_humidity;BME280_pressure;Samples;Min_cycle;Max_cycle;Signal;HPM_P1;HPM_P2
2023/07/12 00:04:29;;;;;;;9.73;5.38;;;;;;;22.14;74.34;99677.91;10257047;28;20133;-75
2023/07/12 00:09:30;;;;;;;9.20;5.10;;;;;;;22.24;74.51;99682.59;10229729;28;20047;-75
2023/07/12 00:14:32;;;;;;;11.65;5.65;;;;;;;22.22;74.76;99673.84;10260595;28;20053;-72
2023/07/12 00:19:33;;;;;;;9.32;6.22;;;;;;;22.30;74.93;99684.28;10234784;28;20061;-74
2023/07/12 00:24:34;;;;;;;9.00;5.43;;;;;;;22.35;74.91;99682.38;10258691;28;20047;-73
2023/07/12 00:29:36;;;;;;;11.00;5.63;;;;;;;22.38;74.55;99686.50;10257177;28;20498;-75
2023/07/12 00:34:37;;;;;;;9.45;5.15;;;;;;;22.43;75.09;99666.50;10260228;28;20055;-75
2023/07/12 00:39:39;;;;;;;7.22;5.05;;;;;;;22.45;74.75;99667.88;10256709;28;20045;-73
2023/07/12 00:44:54;;;;;;;8.63;5.18;;;;;;;22.46;74.91;99664.03;10260636;28;20502;-74
2023/07/12 00:49:56;;;;;;;11.80;5.15;;;;;;;22.49;74.93;99679.94;10243995;28;20051;-71
2023/07/12 00:55:01;;;;;;;6.95;4.35;;;;;;;22.51;74.99;99668.69;10253453;28;20528;-73
2023/07/12 01:00:10;;;;;;;9.70;4.45;;;;;;;22.49;74.94;99666.25;10266586;28;20054;-69
2023/07/12 01:05:14;;;;;;;7.00;4.47;;;;;;;22.54;74.81;99655.28;10259371;28;20137;-73
2023/07/12 01:10:16;;;;;;;7.90;4.50;;;;;;;22.56;74.61;99657.75;10247604;28;20569;-70
2023/07/12 01:15:17;;;;;;;6.90;4.20;;;;;;;22.58;74.45;99666.53;10244918;28;20051;-73
2023/07/12 01:20:22;;;;;;;9.48;3.88;;;;;;;22.64;74.30;99670.91;10262461;28;20407;-74
2023/07/12 01:25:46;;;;;;;7.88;3.75;;;;;;;22.57;74.47;99684.03;10260483;28;20065;-72
2023/07/12 01:30:47;;;;;;;9.77;3.55;;;;;;;22.56;74.74;99690.63;10266920;28;20055;-74
2023/07/12 01:35:48;;;;;;;4.43;2.95;;;;;;;22.64;74.62;99695.56;10257985;28;20050;-73
2023/07/12 01:40:50;;;;;;;4.00;2.75;;;;;;;22.67;74.34;99685.97;10256988;28;20043;-75
2023/07/12 01:45:51;;;;;;;4.13;2.72;;;;;;;22.67;74.58;99680.50;10240650;28;20410;-72
2023/07/12 01:50:53;;;;;;;6.55;2.60;;;;;;;22.68;74.27;99661.03;10258845;28;20047;-72
2023/07/12 01:55:55;;;;;;;4.72;2.33;;;;;;;22.67;74.14;99651.19;10262436;28;20499;-70
2023/07/12 02:00:58;;;;;;;4.53;1.73;;;;;;;22.69;73.95;99638.03;10236219;28;20047;-69
2023/07/12 02:05:59;;;;;;;2.92;2.03;;;;;;;22.69;73.72;99634.47;10246108;28;20051;-70
2023/07/12 02:11:01;;;;;;;4.35;2.30;;;;;;;22.68;73.86;99633.66;10256312;28;20458;-72
2023/07/12 02:16:02;;;;;;;6.40;2.63;;;;;;;22.76;73.72;99622.13;10234333;28;20506;-73
2023/07/12 02:21:04;;;;;;;2.13;1.50;;;;;;;22.78;73.22;99614.47;10256817;28;20051;-70
2023/07/12 02:26:05;;;;;;;5.38;2.72;;;;;;;22.78;73.39;99605.41;10246309;28;20074;-71
2023/07/12 02:31:20;;;;;;;3.08;1.83;;;;;;;22.77;73.36;99606.53;10255962;28;20043;-73
2023/07/12 02:36:22;;;;;;;6.22;2.80;;;;;;;22.86;73.04;99615.00;10261754;28;20065;-69
2023/07/12 02:41:24;;;;;;;5.15;2.60;;;;;;;22.86;72.95;99607.59;10256776;28;20050;-72
2023/07/12 02:46:25;;;;;;;2.85;2.00;;;;;;;22.90;73.20;99602.41;10268266;28;20796;-70
2023/07/12 02:51:27;;;;;;;5.97;2.00;;;;;;;22.87;73.03;99597.47;10259276;28;20137;-73
2023/07/12 02:56:28;;;;;;;6.00;2.38;;;;;;;22.94;72.96;99593.34;10243379;28;20487;-71
2023/07/12 03:01:30;;;;;;;4.45;2.35;;;;;;;22.96;72.77;99615.00;10259929;28;20046;-73
2023/07/12 03:06:31;;;;;;;3.65;2.08;;;;;;;22.94;72.94;99608.97;10257572;28;20105;-73
2023/07/12 03:11:33;;;;;;;3.55;2.08;;;;;;;23.01;72.92;99620.47;10225691;28;20047;-74
2023/07/12 03:16:34;;;;;;;4.22;2.75;;;;;;;22.99;72.62;99610.91;10256233;28;20051;-74
2023/07/12 03:21:36;;;;;;;5.63;2.20;;;;;;;23.02;72.71;99602.94;10264385;28;20188;-70
2023/07/12 03:26:38;;;;;;;4.40;1.98;;;;;;;23.06;72.52;99598.56;10262263;28;20058;-68
2023/07/12 03:31:39;;;;;;;4.10;1.92;;;;;;;23.05;72.54;99604.34;10237820;28;20043;-69
2023/07/12 03:36:41;;;;;;;4.25;2.35;;;;;;;23.08;72.38;99610.06;10257979;28;20565;-70
2023/07/12 03:41:42;;;;;;;4.80;1.80;;;;;;;23.13;72.21;99615.56;10254809;28;20043;-69
2023/07/12 03:46:43;;;;;;;4.07;2.00;;;;;;;23.17;72.40;99610.34;10256613;28;20047;-68
2023/07/12 03:51:45;;;;;;;5.60;2.53;;;;;;;23.25;72.05;99619.91;10237610;28;20066;-69
2023/07/12 03:56:47;;;;;;;4.13;1.70;;;;;;;23.27;71.99;99620.47;10258951;28;20050;-70
2023/07/12 04:01:48;;;;;;;5.00;2.22;;;;;;;23.32;71.60;99624.00;10248467;28;20062;-69
2023/07/12 04:06:50;;;;;;;6.15;2.65;;;;;;;23.24;71.90;99630.03;10257061;28;20066;-68
2023/07/12 04:11:52;;;;;;;3.88;2.17;;;;;;;23.30;71.70;99625.38;10256669;28;20039;-67
2023/07/12 04:16:53;;;;;;;2.10;1.63;;;;;;;23.31;71.65;99638.81;10243644;28;20051;-68
2023/07/12 04:21:54;;;;;;;5.03;3.28;;;;;;;23.25;71.83;99639.13;10260917;28;20122;-68
2023/07/12 04:26:59;;;;;;;6.50;2.20;;;;;;;23.26;71.85;99649.81;10261212;28;20066;-68
2023/07/12 04:32:00;;;;;;;2.70;2.00;;;;;;;23.40;71.46;99655.53;10263989;28;20054;-61
2023/07/12 04:37:02;;;;;;;4.22;2.70;;;;;;;23.49;71.21;99662.09;10263617;28;20450;-61
2023/07/12 04:42:04;;;;;;;5.00;2.78;;;;;;;23.55;71.27;99662.91;10262898;28;20447;-61
2023/07/12 04:47:06;;;;;;;2.63;2.20;;;;;;;23.54;71.09;99661.25;10269330;28;20058;-60
2023/07/12 04:52:08;;;;;;;6.32;2.40;;;;;;;23.51;71.19;99683.75;10243511;28;20499;-61
2023/07/12 04:57:09;;;;;;;4.38;2.67;;;;;;;23.49;71.42;99689.50;10257618;28;20055;-60
2023/07/12 05:02:11;;;;;;;7.70;2.67;;;;;;;23.43;71.61;99704.34;10257910;28;20138;-61
2023/07/12 05:07:12;;;;;;;5.55;2.30;;;;;;;23.50;71.45;99724.09;10258444;28;20055;-62
2023/07/12 05:12:13;;;;;;;5.55;3.28;;;;;;;23.58;71.37;99739.19;10262257;28;20137;-61
2023/07/12 05:17:15;;;;;;;5.47;2.40;;;;;;;23.65;71.21;99760.84;10259627;28;20043;-60
2023/07/12 05:22:16;;;;;;;5.47;3.08;;;;;;;23.66;71.00;99778.97;10242099;28;20077;-61
2023/07/12 05:27:18;;;;;;;8.90;3.47;;;;;;;23.52;71.48;99785.00;10241657;28;20072;-62
2023/07/12 05:32:19;;;;;;;7.03;3.10;;;;;;;23.53;71.40;99792.13;10260582;28;20117;-62
2023/07/12 05:37:22;;;;;;;10.73;3.70;;;;;;;23.53;71.35;99796.78;10254701;28;20059;-63
2023/07/12 05:42:25;;;;;;;3.90;2.28;;;;;;;23.59;68.79;99803.09;10262327;28;20134;-63
2023/07/12 05:47:27;;;;;;;2.38;1.98;;;;;;;23.56;66.80;99810.78;10257959;28;20134;-62
2023/07/12 05:52:28;;;;;;;5.57;1.95;;;;;;;23.59;65.71;99801.16;10259657;28;20054;-64
2023/07/12 05:57:29;;;;;;;2.88;2.58;;;;;;;23.71;64.94;99782.50;10262763;28;20257;-61
2023/07/12 06:02:31;;;;;;;4.28;3.10;;;;;;;23.81;64.69;99778.13;10258834;28;20130;-62
2023/07/12 06:07:33;;;;;;;3.50;3.20;;;;;;;23.94;63.96;99781.09;10257808;28;20445;-62
2023/07/12 06:12:35;;;;;;;6.03;2.88;;;;;;;23.98;63.50;99797.03;10259328;28;20066;-62
2023/07/12 06:17:36;;;;;;;2.60;2.30;;;;;;;23.99;62.63;99807.72;10267907;28;20057;-62
2023/07/12 06:22:38;;;;;;;2.85;1.85;;;;;;;24.12;61.98;99820.88;10264936;28;20084;-62
2023/07/12 06:27:39;;;;;;;3.80;2.33;;;;;;;24.18;61.52;99827.16;10258368;28;20055;-62
2023/07/12 06:32:41;;;;;;;1.45;0.88;;;;;;;24.19;60.84;99848.06;10270049;28;20035;-60
2023/07/12 06:37:43;;;;;;;1.02;0.60;;;;;;;24.38;60.52;99845.50;10228448;28;20059;-62
2023/07/12 06:42:45;;;;;;;1.35;0.57;;;;;;;24.44;59.76;99849.06;10247225;28;20042;-61
2023/07/12 06:47:47;;;;;;;1.75;1.10;;;;;;;24.30;59.42;99844.16;10241787;28;20149;-62
2023/07/12 06:52:49;;;;;;;1.83;1.10;;;;;;;24.41;58.86;99849.59;10262751;28;20043;-62
2023/07/12 06:57:50;;;;;;;4.20;1.00;;;;;;;24.51;58.97;99849.63;10245437;28;20043;-63
2023/07/12 07:02:52;;;;;;;1.80;1.17;;;;;;;24.73;58.19;99854.75;10241905;28;20510;-63
2023/07/12 07:07:54;;;;;;;2.70;1.10;;;;;;;24.93;57.83;99840.88;10235783;28;20079;-62
2023/07/12 07:12:55;;;;;;;2.45;1.40;;;;;;;25.01;57.22;99846.91;10249701;28;20055;-62
2023/07/12 07:17:57;;;;;;;2.65;1.40;;;;;;;25.11;57.06;99839.38;10230201;28;20054;-62
2023/07/12 07:22:59;;;;;;;2.80;1.85;;;;;;;25.13;57.03;99853.69;10257217;28;20055;-61
2023/07/12 07:28:01;;;;;;;4.38;1.50;;;;;;;24.87;56.34;99849.44;10267334;28;20530;-62
2023/07/12 07:33:02;;;;;;;2.83;1.00;;;;;;;24.96;56.30;99852.41;10260264;28;20043;-61
2023/07/12 07:38:04;;;;;;;1.73;1.38;;;;;;;25.00;55.60;99843.31;10259092;28;20059;-62
2023/07/12 07:43:07;;;;;;;3.53;1.65;;;;;;;24.94;54.74;99838.94;10278561;28;20051;-61
2023/07/12 07:48:10;;;;;;;1.92;1.00;;;;;;;25.10;54.07;99837.75;10267772;28;20576;-62
2023/07/12 07:53:12;;;;;;;3.10;0.95;;;;;;;25.40;53.95;99846.13;10267404;28;20153;-62
2023/07/12 07:58:13;;;;;;;1.75;1.00;;;;;;;25.75;53.38;99842.25;10269981;28;20046;-62
2023/07/12 08:03:14;;;;;;;0.93;0.70;;;;;;;25.98;52.97;99846.16;10281856;28;20047;-61
2023/07/12 08:08:16;;;;;;;2.60;1.27;;;;;;;26.00;53.00;99845.88;10281532;28;20043;-62
2023/07/12 08:13:17;;;;;;;1.23;1.08;;;;;;;26.41;52.02;99850.94;10278428;28;20061;-61
2023/07/12 08:18:19;;;;;;;3.58;1.30;;;;;;;26.68;52.28;99844.84;10281033;28;20059;-62
2023/07/12 08:23:21;;;;;;;2.83;1.20;;;;;;;26.86;51.82;99849.53;10268659;28;20110;-65
2023/07/12 08:28:23;;;;;;;2.40;1.00;;;;;;;27.19;51.44;99844.13;10265222;28;20066;-64
2023/07/12 08:33:24;;;;;;;4.10;1.33;;;;;;;27.30;52.06;99853.06;10261674;28;20506;-65
2023/07/12 08:38:31;;;;;;;3.15;0.85;;;;;;;27.60;51.99;99851.75;10288026;28;20039;-63
2023/07/12 08:43:33;;;;;;;2.05;1.08;;;;;;;27.74;51.80;99850.97;10298648;28;20050;-63
2023/07/12 08:48:35;;;;;;;3.97;1.10;;;;;;;27.71;51.11;99866.22;10279312;28;20134;-63
2023/07/12 08:53:40;;;;;;;2.15;0.90;;;;;;;27.67;49.91;99854.94;10304375;28;20043;-62
2023/07/12 08:58:45;;;;;;;1.73;1.10;;;;;;;27.97;50.63;99852.78;10298252;28;20498;-63
2023/07/12 09:03:47;;;;;;;2.20;0.80;;;;;;;28.18;50.15;99861.53;10291734;28;20054;-63
2023/07/12 09:08:53;;;;;;;3.25;1.00;;;;;;;28.54;49.75;99857.28;10297536;28;20051;-63
2023/07/12 09:13:58;;;;;;;5.50;1.80;;;;;;;28.36;48.12;99870.84;10286130;28;20069;-63
2023/07/12 09:19:23;;;;;;;1.27;0.80;;;;;;;28.23;48.38;99860.59;10293433;28;20066;-69
2023/07/12 09:24:28;;;;;;;1.50;0.45;;;;;;;28.09;46.33;99864.16;10295777;28;20070;-68
2023/07/12 09:29:31;;;;;;;1.35;0.50;;;;;;;27.80;45.72;99852.53;10293291;28;20053;-72
2023/07/12 09:34:37;;;;;;;1.10;0.50;;;;;;;27.61;44.43;99850.63;10275347;28;20057;-66
2023/07/12 09:39:39;;;;;;;0.80;0.47;;;;;;;27.59;44.33;99849.31;10253737;28;20098;-68
2023/07/12 09:44:42;;;;;;;1.27;0.32;;;;;;;27.94;43.60;99852.59;10254003;28;20047;-68
2023/07/12 09:49:51;;;;;;;4.07;0.40;;;;;;;28.31;42.59;99853.53;10254195;28;20062;-71
2023/07/12 09:55:00;;;;;;;0.60;0.60;;;;;;;27.97;43.16;99855.56;10251269;28;20051;-64
2023/07/12 10:00:11;;;;;;;1.45;0.63;;;;;;;27.94;42.50;99856.16;10250305;28;20058;-60
2023/07/12 10:05:19;;;;;;;4.88;0.50;;;;;;;28.07;42.57;99860.09;10262521;28;20058;-61
2023/07/12 10:10:46;;;;;;;1.75;0.30;;;;;;;28.33;42.24;99860.41;10260644;28;20129;-61
2023/07/12 10:15:48;;;;;;;1.38;0.52;;;;;;;28.54;42.04;99857.28;10256241;28;20059;-60
2023/07/12 10:20:51;;;;;;;1.40;0.50;;;;;;;28.80;41.94;99857.53;10272000;28;20055;-60
2023/07/12 10:25:57;;;;;;;3.03;0.47;;;;;;;29.01;41.83;99847.66;10271330;28;20110;-60
2023/07/12 10:31:08;;;;;;;1.70;0.40;;;;;;;29.29;40.72;99850.34;10272706;28;20069;-59
2023/07/12 10:36:19;;;;;;;0.80;0.50;;;;;;;29.00;40.29;99856.25;10261903;28;20579;-60
2023/07/12 10:41:29;;;;;;;2.60;0.50;;;;;;;29.30;40.36;99840.91;10261675;28;20467;-60
2023/07/12 10:46:34;;;;;;;2.50;0.73;;;;;;;29.57;40.63;99847.47;10257884;28;20067;-60
2023/07/12 10:51:42;;;;;;;2.10;0.45;;;;;;;29.81;41.09;99831.34;10264691;28;20078;-59
2023/07/12 10:56:54;;;;;;;2.53;0.40;;;;;;;30.18;40.01;99832.00;10258461;28;20054;-59
2023/07/12 11:02:09;;;;;;;1.90;0.60;;;;;;;30.12;39.52;99829.69;10263842;28;20133;-67
2023/07/12 11:07:10;;;;;;;0.80;0.40;;;;;;;30.09;38.32;99820.03;10273211;28;20141;-60
2023/07/12 11:12:27;;;;;;;0.57;0.28;;;;;;;30.12;36.31;99815.84;10247491;28;20051;-59
2023/07/12 11:17:28;;;;;;;0.30;0.30;;;;;;;30.24;35.83;99818.81;10260050;28;20066;-59
2023/07/12 11:22:52;;;;;;;0.40;0.20;;;;;;;29.75;34.03;99810.44;10267786;28;20057;-60
2023/07/12 11:27:53;;;;;;;0.75;0.20;;;;;;;29.62;34.13;99825.16;10281462;28;20051;-59
2023/07/12 11:33:03;;;;;;;3.15;0.22;;;;;;;29.38;34.51;99814.41;10279777;28;20043;-60
2023/07/12 11:38:13;;;;;;;0.80;0.30;;;;;;;29.31;33.40;99827.91;10284969;28;20053;-60
2023/07/12 11:43:23;;;;;;;1.13;0.30;;;;;;;29.23;33.06;99826.69;10269523;28;20040;-60
2023/07/12 11:48:30;;;;;;;0.50;0.30;;;;;;;29.42;32.86;99816.25;10284800;28;20039;-60
2023/07/12 11:53:31;;;;;;;0.40;0.32;;;;;;;29.65;32.57;99819.00;10286119;28;20049;-60
2023/07/12 11:58:32;;;;;;;0.68;0.20;;;;;;;29.84;32.78;99813.28;10244454;28;20631;-60
2023/07/12 12:03:36;;;;;;;0.57;0.30;;;;;;;30.00;32.67;99820.03;10268952;28;20499;-60
2023/07/12 12:08:44;;;;;;;0.95;0.30;;;;;;;30.37;31.41;99825.41;10268219;28;20114;-60
2023/07/12 12:13:51;;;;;;;0.73;0.22;;;;;;;29.82;31.49;99823.84;10271635;28;20055;-60
2023/07/12 12:19:16;;;;;;;1.20;0.30;;;;;;;30.05;31.38;99808.78;10279485;28;20478;-59
2023/07/12 12:24:21;;;;;;;0.20;0.20;;;;;;;30.00;31.04;99825.56;10275939;28;20053;-60
2023/07/12 12:29:24;;;;;;;2.30;0.30;;;;;;;30.14;31.08;99821.88;10259192;28;20087;-60
2023/07/12 12:34:43;;;;;;;0.60;0.20;;;;;;;30.18;30.74;99809.00;10264612;28;20047;-60
2023/07/12 12:39:57;;;;;;;0.95;0.20;;;;;;;30.59;30.42;99805.88;10265925;28;20055;-59
2023/07/12 12:44:59;;;;;;;0.95;0.30;;;;;;;30.90;30.06;99806.91;10281886;28;20051;-60
2023/07/12 12:50:01;;;;;;;0.55;0.30;;;;;;;31.09;29.83;99806.59;10273935;28;20069;-60
2023/07/12 12:55:08;;;;;;;1.57;0.30;;;;;;;31.05;30.11;99809.22;10283011;28;20051;-60
2023/07/12 13:00:20;;;;;;;3.33;0.20;;;;;;;30.99;30.05;99807.75;10299069;28;20672;-59
2023/07/12 13:05:27;;;;;;;1.15;0.30;;;;;;;30.70;30.26;99800.81;10302575;28;20102;-60
2023/07/12 13:10:35;;;;;;;0.50;0.20;;;;;;;31.11;29.13;99801.53;10289127;28;20051;-60
2023/07/12 13:15:39;;;;;;;3.13;0.57;;;;;;;31.09;29.27;99809.38;10289598;28;20055;-61
2023/07/12 13:21:00;;;;;;;0.32;0.20;;;;;;;31.47;29.68;99808.72;10300976;28;20086;-61
2023/07/12 13:26:02;;;;;;;1.10;0.38;;;;;;;32.03;29.19;99803.16;10300963;28;20047;-61
2023/07/12 13:31:03;;;;;;;1.65;0.40;;;;;;;32.19;29.01;99798.69;10289462;28;20074;-59
2023/07/12 13:36:09;;;;;;;1.08;0.28;;;;;;;31.70;29.35;99790.69;10280639;28;20491;-59
2023/07/12 13:41:26;;;;;;;1.27;0.20;;;;;;;31.66;29.45;99798.03;10268676;28;20066;-60
2023/07/12 13:46:30;;;;;;;0.95;0.20;;;;;;;31.88;29.37;99801.75;10275383;28;20505;-60
2023/07/12 13:51:32;;;;;;;0.60;0.40;;;;;;;32.11;29.01;99803.16;10280420;28;20043;-60
2023/07/12 13:56:33;;;;;;;0.75;0.30;;;;;;;31.51;29.09;99798.56;10275948;28;20050;-60
2023/07/12 14:01:38;;;;;;;1.00;0.40;;;;;;;31.23;29.11;99798.91;10278569;28;20138;-60
2023/07/12 14:06:46;;;;;;;0.32;0.20;;;;;;;31.75;28.37;99792.44;10292511;28;20155;-60
2023/07/12 14:11:50;;;;;;;;;;;;;;;32.16;28.08;99789.03;10283346;28;20043;-61
2023/07/12 14:16:51;;;;;;;0.60;0.20;;;;;;;32.05;27.74;99787.81;10275719;28;19937;-60
2023/07/12 14:21:53;;;;;;;0.30;0.20;;;;;;;31.54;28.04;99800.69;10271037;28;20049;-61
2023/07/12 14:26:54;;;;;;;1.88;0.38;;;;;;;30.99;28.87;99800.22;10270513;28;20047;-61
2023/07/12 14:31:56;;;;;;;0.40;0.20;;;;;;;30.87;29.30;99788.94;10273025;28;20055;-61
2023/07/12 14:36:57;;;;;;;2.83;0.30;;;;;;;31.39;28.74;99783.34;10274922;28;20088;-61
2023/07/12 14:41:59;;;;;;;2.05;0.32;;;;;;;32.30;27.79;99788.00;10281572;28;20059;-60
2023/07/12 14:47:00;;;;;;;0.40;0.20;;;;;;;32.95;27.00;99797.72;10280182;28;20118;-61
2023/07/12 14:52:04;;;;;;;0.98;0.20;;;;;;;33.42;25.79;99782.72;10277453;28;20051;-60
2023/07/12 14:57:14;;;;;;;1.38;0.30;;;;;;;33.27;25.87;99777.78;10280016;28;20815;-61
2023/07/12 15:02:40;;;;;;;0.60;0.32;;;;;;;32.87;25.98;99795.00;10300076;28;20054;-61
2023/07/12 15:07:43;;;;;;;1.02;0.30;;;;;;;32.78;25.73;99792.28;10298266;28;20058;-60
2023/07/12 15:12:51;;;;;;;2.42;0.30;;;;;;;32.79;25.79;99775.22;10295682;28;20072;-60
2023/07/12 15:18:13;;;;;;;0.60;0.20;;;;;;;32.67;24.55;99791.06;10290907;28;20071;-60
2023/07/12 15:23:16;;;;;;;1.33;0.43;;;;;;;32.60;24.60;99792.41;10295213;28;20051;-60
2023/07/12 15:28:19;;;;;;;0.90;0.25;;;;;;;32.58;24.15;99799.47;10292205;28;20063;-61
2023/07/12 15:33:26;;;;;;;0.60;0.20;;;;;;;32.28;22.91;99793.88;10292564;28;20154;-60
2023/07/12 15:38:29;;;;;;;2.20;0.30;;;;;;;32.41;22.85;99798.41;10290086;28;20147;-61
2023/07/12 15:43:39;;;;;;;0.57;0.20;;;;;;;32.22;22.78;99793.25;10293151;28;20054;-61
2023/07/12 15:48:42;;;;;;;0.35;0.15;;;;;;;31.81;22.32;99807.78;10286859;28;20115;-60
2023/07/12 15:53:47;;;;;;;2.03;0.30;;;;;;;31.27;22.39;99804.63;10293179;28;20054;-60
2023/07/12 15:58:49;;;;;;;0.20;0.10;;;;;;;31.18;21.36;99805.47;10296216;28;20424;-60
2023/07/12 16:03:51;;;;;;;2.55;0.30;;;;;;;31.14;21.74;99821.16;10301067;28;20106;-60
2023/07/12 16:08:52;;;;;;;1.98;0.30;;;;;;;30.83;22.21;99818.50;10300497;28;20040;-60
2023/07/12 16:13:56;;;;;;;0.47;0.30;;;;;;;30.92;21.95;99813.78;10291074;28;20047;-60
2023/07/12 16:19:02;;;;;;;0.95;0.15;;;;;;;31.12;22.12;99817.03;10301065;28;20062;-60
2023/07/12 16:24:04;;;;;;;0.65;0.10;;;;;;;30.74;22.37;99823.19;10297593;28;20317;-61
2023/07/12 16:29:07;;;;;;;1.83;0.30;;;;;;;30.58;22.61;99820.88;10306826;28;20043;-61
2023/07/12 16:34:26;;;;;;;0.17;0.15;;;;;;;30.51;22.47;99815.00;10303960;28;20035;-61
2023/07/12 16:39:27;;;;;;;4.70;0.30;;;;;;;30.41;23.14;99824.44;10309553;28;20063;-60
2023/07/12 16:44:29;;;;;;;0.93;0.20;;;;;;;30.01;22.56;99827.19;10413752;23;20087;-61
2023/07/12 16:49:30;;;;;;;0.75;0.10;;;;;;;30.05;23.14;99835.69;10323007;28;20038;-60
2023/07/12 16:54:33;;;;;;;0.20;0.10;;;;;;;29.65;22.96;99855.81;10307795;28;20039;-60
2023/07/12 16:59:34;;;;;;;0.22;0.10;;;;;;;29.49;23.04;99859.31;10318184;28;20055;-61
2023/07/12 17:04:36;;;;;;;1.80;0.20;;;;;;;29.36;22.62;99847.13;10314724;28;20066;-61
2023/07/12 17:09:37;;;;;;;0.25;0.17;;;;;;;29.33;22.52;99845.81;10308116;28;20042;-60
2023/07/12 17:14:39;;;;;;;1.05;0.20;;;;;;;29.37;22.84;99849.59;10296415;28;20151;-61
2023/07/12 17:19:41;;;;;;;0.60;0.20;;;;;;;29.44;22.80;99843.63;10295641;28;20066;-61
2023/07/12 17:24:45;;;;;;;0.25;0.20;;;;;;;29.51;22.94;99838.47;10306563;28;20043;-60
2023/07/12 17:29:47;;;;;;;1.38;0.28;;;;;;;29.82;22.89;99848.78;10295023;28;20063;-61
2023/07/12 17:34:49;;;;;;;1.27;0.20;;;;;;;29.99;23.35;99842.50;10296479;28;20054;-61
2023/07/12 17:39:50;;;;;;;0.30;0.10;;;;;;;30.09;22.80;99847.78;10305857;28;20050;-60
2023/07/12 17:45:18;;;;;;;0.45;0.20;;;;;;;29.93;23.20;99846.56;10279464;28;20403;-60
2023/07/12 17:50:20;;;;;;;0.80;0.15;;;;;;;29.86;23.38;99838.72;10277526;28;20652;-66
2023/07/12 17:55:21;;;;;;;1.50;0.20;;;;;;;29.60;23.64;99835.72;10270989;28;20054;-64
2023/07/12 18:00:23;;;;;;;0.95;0.13;;;;;;;29.37;24.03;99844.06;10280428;28;20049;-62
2023/07/12 18:05:28;;;;;;;0.55;0.20;;;;;;;29.25;24.25;99852.13;10266430;28;20047;-61
2023/07/12 18:10:29;;;;;;;0.10;0.10;;;;;;;29.01;24.86;99847.66;10265486;28;20646;-61
2023/07/12 18:15:31;;;;;;;0.17;0.10;;;;;;;28.92;25.13;99841.22;10259318;28;20055;-63
2023/07/12 18:20:32;;;;;;;0.52;0.10;;;;;;;28.74;25.38;99842.19;10273627;28;20043;-62
2023/07/12 18:25:38;;;;;;;0.40;0.05;;;;;;;28.48;25.21;99843.50;10299769;28;20588;-63
2023/07/12 18:30:42;;;;;;;1.10;0.10;;;;;;;28.42;25.17;99835.63;10300566;28;20051;-64
2023/07/12 18:35:46;;;;;;;1.30;0.30;;;;;;;28.25;25.32;99852.81;10264177;28;20122;-64
2023/07/12 18:40:49;;;;;;;0.68;0.20;;;;;;;28.16;24.96;99851.88;10298819;28;20043;-64
2023/07/12 18:45:51;;;;;;;0.93;0.10;;;;;;;27.95;25.47;99844.00;10299708;28;20118;-64
2023/07/12 18:50:53;;;;;;;0.30;0.20;;;;;;;27.93;25.55;99845.44;10300226;28;20082;-63
2023/07/12 18:55:54;;;;;;;1.23;0.22;;;;;;;27.80;25.66;99849.75;10288982;28;20554;-63
2023/07/12 19:00:56;;;;;;;1.00;0.10;;;;;;;27.84;25.57;99854.41;10270454;28;20081;-64
2023/07/12 19:06:01;;;;;;;1.73;0.17;;;;;;;27.76;26.22;99843.19;10255949;28;20097;-65
2023/07/12 19:11:04;;;;;;;2.63;0.20;;;;;;;27.62;26.34;99841.22;10273626;28;20050;-66
2023/07/12 19:16:07;;;;;;;1.25;0.20;;;;;;;27.43;26.63;99849.56;10241006;28;20291;-64
2023/07/12 19:21:30;;;;;;;0.38;0.10;;;;;;;27.16;26.61;99854.94;10258218;28;20043;-64
2023/07/12 19:26:32;;;;;;;1.23;0.20;;;;;;;26.96;26.92;99869.84;10249304;28;20047;-66
2023/07/12 19:31:39;;;;;;;0.25;0.15;;;;;;;26.76;27.21;99884.69;10264751;28;20053;-65
2023/07/12 19:36:40;;;;;;;0.55;0.20;;;;;;;26.62;27.95;99902.00;10258306;28;20213;-65
2023/07/12 19:41:42;;;;;;;0.70;0.10;;;;;;;26.44;27.86;99917.31;10259923;28;20623;-66
2023/07/12 19:46:44;;;;;;;0.32;0.20;;;;;;;26.37;28.50;99922.34;10264244;28;20399;-65
2023/07/12 19:51:47;;;;;;;0.65;0.35;;;;;;;26.26;28.53;99929.91;10275622;28;20122;-65
2023/07/12 19:56:49;;;;;;;0.85;0.20;;;;;;;26.26;29.00;99938.19;10267039;28;20079;-66
2023/07/12 20:01:50;;;;;;;1.65;0.60;;;;;;;26.23;29.28;99944.25;10252487;28;20055;-65
2023/07/12 20:06:52;;;;;;;0.73;0.20;;;;;;;26.23;29.42;99954.47;10266705;28;20562;-66
2023/07/12 20:11:53;;;;;;;0.63;0.20;;;;;;;26.13;29.93;99971.91;10273517;28;20058;-66
2023/07/12 20:16:55;;;;;;;0.90;0.20;;;;;;;25.94;30.40;99973.72;10264072;28;20050;-66
2023/07/12 20:21:58;;;;;;;1.00;0.20;;;;;;;25.82;30.62;99961.09;10271727;28;20138;-66
2023/07/12 20:27:00;;;;;;;1.27;0.20;;;;;;;25.75;31.02;99968.06;10262483;28;20055;-65
2023/07/12 20:32:01;;;;;;;0.75;0.20;;;;;;;25.71;31.90;99962.28;10267555;28;20065;-66
2023/07/12 20:37:05;;;;;;;1.10;0.30;;;;;;;25.66;32.13;99965.09;10276567;28;20046;-67
2023/07/12 20:42:08;;;;;;;0.65;0.40;;;;;;;25.55;32.57;99960.75;10270342;28;20520;-67
2023/07/12 20:47:09;;;;;;;2.33;0.30;;;;;;;25.33;32.81;99968.31;10264882;28;20057;-66
2023/07/12 20:52:11;;;;;;;1.65;0.30;;;;;;;25.14;33.66;99972.81;10272864;28;20051;-65
2023/07/12 20:57:12;;;;;;;1.95;0.20;;;;;;;25.01;34.38;99976.16;10277371;28;20062;-66
2023/07/12 21:02:14;;;;;;;1.15;0.25;;;;;;;24.88;34.46;99975.66;10270228;28;20134;-65
2023/07/12 21:07:15;;;;;;;1.90;0.28;;;;;;;24.73;35.43;99984.75;10259336;28;20549;-66
2023/07/12 21:12:17;;;;;;;0.85;0.30;;;;;;;24.59;35.96;99978.22;10269702;28;20049;-66
2023/07/12 21:17:19;;;;;;;2.10;0.30;;;;;;;24.45;36.39;99979.88;10263455;28;20059;-66
2023/07/12 21:22:21;;;;;;;0.88;0.30;;;;;;;24.28;36.84;99983.72;10263056;28;20046;-65
2023/07/12 21:27:24;;;;;;;1.50;0.40;;;;;;;24.17;37.26;99978.50;10280320;28;20047;-67
2023/07/12 21:32:25;;;;;;;2.20;0.30;;;;;;;24.04;37.50;99982.66;10283388;28;20091;-67
2023/07/12 21:37:27;;;;;;;1.35;0.38;;;;;;;23.93;37.66;99992.78;10278935;28;20510;-66
2023/07/12 21:42:29;;;;;;;2.38;0.40;;;;;;;23.77;38.04;100011.13;10272172;28;20051;-63
2023/07/12 21:47:30;;;;;;;3.83;0.45;;;;;;;23.60;38.33;100008.66;10270164;28;20054;-64
2023/07/12 21:52:32;;;;;;;1.10;0.32;;;;;;;23.50;39.00;100016.81;10264212;28;20088;-65
2023/07/12 21:57:33;;;;;;;4.03;0.40;;;;;;;23.38;39.21;100016.25;10260232;28;20071;-63
2023/07/12 22:02:35;;;;;;;1.77;0.30;;;;;;;23.29;39.25;100026.94;10266087;28;20065;-63
2023/07/12 22:07:42;;;;;;;1.58;0.20;;;;;;;23.24;39.02;100035.94;10264522;28;20429;-65
2023/07/12 22:12:44;;;;;;;2.20;0.30;;;;;;;23.18;39.59;100039.75;10248561;28;20559;-65
2023/07/12 22:17:46;;;;;;;3.28;1.05;;;;;;;23.11;39.78;100045.50;10257788;28;20054;-68
2023/07/12 22:22:48;;;;;;;1.15;0.30;;;;;;;23.05;39.85;100059.47;10266447;28;20066;-66
2023/07/12 22:27:50;;;;;;;1.20;0.40;;;;;;;23.02;39.89;100070.91;10260946;28;20053;-67
2023/07/12 22:32:52;;;;;;;1.17;0.30;;;;;;;22.95;40.73;100082.94;10260811;28;20058;-64
2023/07/12 22:37:55;;;;;;;0.60;0.32;;;;;;;22.86;40.87;100091.91;10259632;28;20134;-67
2023/07/12 22:42:57;;;;;;;1.48;0.30;;;;;;;22.75;40.70;100112.97;10264477;28;20059;-67
2023/07/12 22:47:59;;;;;;;4.55;0.30;;;;;;;22.68;41.14;100124.13;10261123;28;20046;-66
2023/07/12 22:53:02;;;;;;;2.30;0.40;;;;;;;22.59;41.24;100125.72;10249310;28;20053;-66
2023/07/12 22:58:04;;;;;;;1.50;0.20;;;;;;;22.51;41.56;100128.91;10263328;28;20063;-65
2023/07/12 23:03:05;;;;;;;2.70;0.47;;;;;;;22.45;41.85;100141.72;10262080;28;20050;-66
2023/07/12 23:08:07;;;;;;;1.58;0.35;;;;;;;22.34;42.13;100153.69;10261399;28;20110;-66
2023/07/12 23:13:09;;;;;;;3.70;0.50;;;;;;;22.15;42.20;100161.41;10263386;28;20062;-66
2023/07/12 23:18:12;;;;;;;1.13;0.25;;;;;;;22.16;41.99;100161.16;10265438;28;20059;-66
2023/07/12 23:23:19;;;;;;;0.70;0.30;;;;;;;22.21;42.12;100171.31;10265662;28;20076;-62
2023/07/12 23:28:22;;;;;;;5.22;0.38;;;;;;;22.17;41.88;100172.94;10253918;28;20051;-61
2023/07/12 23:33:24;;;;;;;2.25;0.38;;;;;;;22.18;42.37;100191.84;10256181;28;20051;-61